Omodos — 3FQX3 — position and weather

sailwx.info

Track history (hours):
 
Tides and Currents Weather Stations Pressure Air Temp Water Temp Dewpoint Dewpoint Depression Visibility Wind Speed Wind Dir Waves Ship Positions

Omodos

Last reported at 2018-Jun-02 19:58 UTC. Time now 2018-Jun-24 05:02 UTC.
Position N 26°33' W 114°35'.
Warning: this ship's position is 21 days out of date.

Length 183 m; draft 8.2 m.

Type: Tanker. MMSI: 370153000.

Date/timePositionNaut miles runAvg speedWind from/ knotsBaromVisibWave heightAir tempDewpointWater temp
2018-Jun-02 19:58N 26°33' W 114°35'814.5
2018-Jun-02 19:26N 26°39' W 114°40'2214.0
2018-Jun-02 17:50N 26°57' W 114°54'2614.1
2018-Jun-02 16:01N 27°18' W 115°11'012.3
2018-Jun-02 15:59N 27°18' W 115°11'714.5
2018-Jun-02 15:30N 27°24' W 115°15'714.3
2018-Jun-02 15:00N 27°31' W 115°20'1014.1
2018-Jun-02 14:19N 27°39' W 115°26'1414.5
2018-Jun-02 13:20N 27°50' W 115°35'514.5
2018-Jun-02 13:00N 27°54' W 115°38'2213.8
2018-Jun-02 11:27N 28°12' W 115°51'4114.3
2018-Jun-02 08:36N 28°51' W 116°05'714.1
2018-Jun-02 08:07N 28°57' W 116°08'316.9
2018-Jun-02 07:57N 29°00' W 116°09'712.8
2018-Jun-02 07:22N 29°07' W 116°11'5114.0
2018-Jun-02 03:42N 29°56' W 116°29'614.8
2018-Jun-02 03:18N 30°02' W 116°31'515.1
2018-Jun-02 02:58N 30°07' W 116°32'714.6
2018-Jun-02 02:29N 30°13' W 116°35'914.6
2018-Jun-02 01:52N 30°22' W 116°38'514.5
2018-Jun-02 01:30N 30°27' W 116°40'714.6
2018-Jun-02 01:00N 30°34' W 116°43'814.9
2018-Jun-02 00:29N 30°41' W 116°45'714.7
2018-Jun-02 00:00N 30°48' W 116°47'2514.9
2018-Jun-01 22:20N 31°12' W 116°56'514.7
2018-Jun-01 22:00N 31°17' W 116°58'3714.6
2018-Jun-01 19:30N 31°51' W 117°11'814.3
2018-Jun-01 18:58N 31°59' W 117°13'714.5
2018-Jun-01 18:29N 32°06' W 117°15'19 0.7
2018-May-31 17:09N 32°22' W 117°05'1 1.0
2018-May-31 15:48N 32°21' W 117°07'  
Track history (hours):
 
Tides and Currents Weather Stations Pressure Air Temp Water Temp Dewpoint Dewpoint Depression Visibility Wind Speed Wind Dir Waves Ship Positions

Omodos

Last reported at 2018-Jun-02 19:58 UTC. Time now 2018-Jun-24 05:02 UTC.
Position N 26°33' W 114°35'.
Warning: this ship's position is 21 days out of date.

Length 183 m; draft 8.2 m.

Type: Tanker. MMSI: 370153000.

Date/timePositionNaut miles runAvg speedWind from/ knotsBaromVisibWave heightAir tempDewpointWater temp
2018-Jun-02 19:58N 26°33' W 114°35'814.5
2018-Jun-02 19:26N 26°39' W 114°40'2214.0
2018-Jun-02 17:50N 26°57' W 114°54'2614.1
2018-Jun-02 16:01N 27°18' W 115°11'012.3
2018-Jun-02 15:59N 27°18' W 115°11'714.5
2018-Jun-02 15:30N 27°24' W 115°15'714.3
2018-Jun-02 15:00N 27°31' W 115°20'1014.1
2018-Jun-02 14:19N 27°39' W 115°26'1414.5
2018-Jun-02 13:20N 27°50' W 115°35'514.5
2018-Jun-02 13:00N 27°54' W 115°38'2213.8
2018-Jun-02 11:27N 28°12' W 115°51'4114.3
2018-Jun-02 08:36N 28°51' W 116°05'714.1
2018-Jun-02 08:07N 28°57' W 116°08'316.9
2018-Jun-02 07:57N 29°00' W 116°09'712.8
2018-Jun-02 07:22N 29°07' W 116°11'5114.0
2018-Jun-02 03:42N 29°56' W 116°29'614.8
2018-Jun-02 03:18N 30°02' W 116°31'515.1
2018-Jun-02 02:58N 30°07' W 116°32'714.6
2018-Jun-02 02:29N 30°13' W 116°35'914.6
2018-Jun-02 01:52N 30°22' W 116°38'514.5
2018-Jun-02 01:30N 30°27' W 116°40'714.6
2018-Jun-02 01:00N 30°34' W 116°43'814.9
2018-Jun-02 00:29N 30°41' W 116°45'714.7
2018-Jun-02 00:00N 30°48' W 116°47'2514.9
2018-Jun-01 22:20N 31°12' W 116°56'514.7
2018-Jun-01 22:00N 31°17' W 116°58'3714.6
2018-Jun-01 19:30N 31°51' W 117°11'814.3
2018-Jun-01 18:58N 31°59' W 117°13'714.5
2018-Jun-01 18:29N 32°06' W 117°15'19 0.7
2018-May-31 17:09N 32°22' W 117°05'1 1.0
2018-May-31 15:48N 32°21' W 117°07'  

Dump ship's entire track history